createdAt,value
2019-03-21T00:00:58.028Z,86.40
2019-03-21T00:03:24.199Z,86.50
2019-03-21T00:05:50.354Z,86.50
2019-03-21T00:08:16.517Z,86.80
2019-03-21T00:10:46.515Z,87.00
2019-03-21T00:13:12.701Z,87.10
2019-03-21T00:15:45.448Z,87.30
2019-03-21T00:18:14.000Z,87.70
2019-03-21T00:20:40.169Z,87.70
2019-03-21T00:23:06.328Z,87.70
2019-03-21T00:25:32.505Z,87.50
2019-03-21T00:27:58.658Z,87.70
2019-03-21T00:30:26.042Z,87.90
2019-03-21T00:32:53.741Z,88.70
2019-03-21T00:35:19.899Z,88.00
2019-03-21T00:37:46.555Z,88.60
2019-03-21T00:40:19.333Z,88.40
2019-03-21T00:42:46.532Z,88.40
2019-03-21T00:45:14.986Z,88.90
2019-03-21T00:47:41.155Z,89.20
2019-03-21T00:50:10.913Z,88.80
2019-03-21T00:52:37.076Z,88.90
2019-03-21T00:55:07.035Z,88.70
2019-03-21T00:57:33.212Z,88.50
2019-03-21T00:59:59.359Z,88.10
2019-03-21T01:02:25.532Z,88.30
2019-03-21T01:04:51.834Z,88.40
2019-03-21T01:07:18.074Z,89.00
2019-03-21T01:09:44.228Z,89.20
2019-03-21T01:12:10.399Z,89.60
2019-03-21T01:14:36.577Z,89.70
2019-03-21T01:17:02.735Z,89.70
2019-03-21T01:19:30.020Z,89.10
2019-03-21T01:21:56.183Z,89.20
2019-03-21T01:24:22.343Z,89.80
2019-03-21T01:26:48.501Z,90.10
2019-03-21T01:29:14.676Z,90.10
2019-03-21T01:31:40.833Z,89.90
2019-03-21T01:34:07.029Z,90.00
2019-03-21T01:36:35.410Z,90.10
2019-03-21T01:39:01.579Z,89.80
2019-03-21T01:41:29.641Z,89.10
2019-03-21T01:43:55.824Z,88.50
2019-03-21T01:46:24.376Z,88.90
2019-03-21T01:48:50.539Z,88.60
2019-03-21T01:51:16.698Z,89.30
2019-03-21T01:53:42.870Z,89.40
2019-03-21T01:56:09.023Z,90.00
2019-03-21T01:58:35.206Z,89.90
2019-03-21T02:01:01.351Z,89.90
2019-03-21T02:03:27.507Z,89.30
2019-03-21T02:05:53.688Z,90.10
2019-03-21T02:08:19.868Z,90.20
2019-03-21T02:10:46.052Z,90.20
2019-03-21T02:13:12.230Z,90.20
2019-03-21T02:15:38.424Z,90.20
2019-03-21T02:18:04.799Z,90.10
2019-03-21T02:20:30.974Z,90.00
2019-03-21T02:22:57.154Z,89.50
2019-03-21T02:25:26.439Z,90.10
2019-03-21T02:27:52.967Z,90.30
2019-03-21T02:30:28.241Z,90.50
2019-03-21T02:33:14.966Z,90.40
2019-03-21T02:35:42.864Z,90.50
2019-03-21T02:38:09.012Z,90.30
2019-03-21T02:40:35.244Z,90.30
2019-03-21T02:43:01.504Z,90.30
2019-03-21T02:45:27.676Z,90.30
2019-03-21T02:47:53.835Z,90.20
2019-03-21T02:50:26.087Z,90.20
2019-03-21T02:52:52.266Z,90.30
2019-03-21T02:55:18.976Z,90.20
2019-03-21T02:57:45.143Z,90.40
2019-03-21T03:00:14.925Z,90.50
2019-03-21T03:02:41.072Z,90.70
2019-03-21T03:05:13.865Z,90.40
2019-03-21T03:07:40.012Z,90.40
2019-03-21T03:10:11.912Z,90.40
2019-03-21T03:12:38.067Z,90.60
2019-03-21T03:15:21.385Z,90.50
2019-03-21T03:17:36.129Z,90.80
2019-03-21T03:20:09.252Z,91.10
2019-03-21T03:22:36.528Z,91.30
2019-03-21T03:25:06.390Z,91.80
2019-03-21T03:27:32.621Z,91.70
2019-03-21T03:29:59.872Z,91.10
2019-03-21T03:32:26.201Z,90.70
2019-03-21T03:34:52.341Z,90.90
2019-03-21T03:37:18.564Z,91.00
2019-03-21T03:39:44.719Z,91.10
2019-03-21T03:42:11.091Z,91.10
2019-03-21T03:44:37.264Z,91.20
2019-03-21T03:47:03.464Z,91.00
2019-03-21T03:49:29.624Z,90.90
2019-03-21T03:51:57.025Z,91.20
2019-03-21T03:54:23.188Z,91.40
2019-03-21T03:56:49.361Z,91.30
2019-03-21T03:59:15.544Z,91.20
2019-03-21T04:01:41.908Z,91.00
2019-03-21T04:04:08.067Z,91.00
2019-03-21T04:06:34.244Z,91.20
2019-03-21T04:09:00.640Z,91.50
2019-03-21T04:11:26.995Z,91.50
2019-03-21T04:13:54.281Z,91.50
2019-03-21T04:16:20.465Z,91.70
2019-03-21T04:18:46.622Z,91.60
2019-03-21T04:21:14.741Z,91.10
2019-03-21T04:23:40.938Z,91.40
2019-03-21T04:26:13.377Z,91.60
2019-03-21T04:28:41.572Z,91.80
2019-03-21T04:31:07.730Z,91.70
2019-03-21T04:33:33.897Z,91.60
2019-03-21T04:36:00.095Z,91.50
2019-03-21T04:38:26.245Z,92.00
2019-03-21T04:40:52.400Z,91.50
2019-03-21T04:43:18.576Z,91.40
2019-03-21T04:45:44.724Z,91.20
2019-03-21T04:48:10.898Z,91.40
2019-03-21T04:50:38.571Z,91.60
2019-03-21T04:53:04.720Z,91.40
2019-03-21T04:55:30.932Z,91.60
2019-03-21T04:57:57.181Z,91.80
2019-03-21T05:00:27.157Z,91.70
2019-03-21T05:02:56.047Z,91.90
2019-03-21T05:05:22.201Z,91.90
2019-03-21T05:07:48.359Z,91.80
2019-03-21T05:10:15.720Z,91.50
2019-03-21T05:12:41.925Z,91.60
2019-03-21T05:15:11.176Z,91.60
2019-03-21T05:17:37.342Z,92.00
2019-03-21T05:20:15.447Z,91.90
2019-03-21T05:22:41.624Z,91.90
2019-03-21T05:25:09.893Z,91.60
2019-03-21T05:27:37.191Z,91.40
2019-03-21T05:30:15.601Z,91.40
2019-03-21T05:32:41.759Z,91.60
2019-03-21T05:35:08.428Z,91.50
2019-03-21T05:37:34.603Z,91.50
2019-03-21T05:40:00.769Z,91.40
2019-03-21T05:42:26.930Z,91.60
2019-03-21T05:44:53.102Z,91.60
2019-03-21T05:47:19.279Z,92.00
2019-03-21T05:49:45.749Z,91.50
2019-03-21T05:52:11.923Z,91.40
2019-03-21T05:54:38.323Z,90.90
2019-03-21T05:57:04.560Z,90.40
2019-03-21T05:59:30.773Z,88.80
2019-03-21T06:01:56.940Z,87.50
2019-03-21T06:04:23.123Z,85.70
2019-03-21T06:09:40.884Z,77.60
2019-03-21T06:12:07.204Z,73.50
2019-03-21T06:14:46.631Z,72.40
2019-03-21T06:17:12.830Z,67.70
2019-03-21T06:20:00.445Z,64.90
2019-03-21T06:22:33.247Z,63.00
2019-03-21T06:25:03.560Z,60.00
2019-03-21T06:27:29.836Z,58.10
2019-03-21T06:29:56.286Z,56.70
2019-03-21T06:32:23.900Z,54.30
2019-03-21T06:34:50.100Z,54.80
2019-03-21T06:37:16.336Z,53.80
2019-03-21T06:39:42.504Z,56.00
2019-03-21T06:42:08.762Z,55.00
2019-03-21T06:44:35.010Z,54.60
2019-03-21T06:47:01.188Z,57.10
2019-03-21T06:49:27.553Z,60.00
2019-03-21T06:51:53.755Z,60.60
2019-03-21T06:54:19.917Z,63.50
2019-03-21T06:56:46.085Z,62.20
2019-03-21T06:59:12.286Z,61.50
2019-03-21T07:01:38.500Z,61.80
2019-03-21T07:04:07.322Z,60.70
2019-03-21T07:06:33.861Z,60.70
2019-03-21T07:09:00.026Z,59.90
2019-03-21T07:11:26.205Z,56.00
2019-03-21T07:13:52.375Z,53.20
2019-03-21T07:16:18.575Z,49.00
2019-03-21T07:18:44.746Z,46.20
2019-03-21T07:21:12.352Z,43.80
2019-03-21T07:23:38.531Z,42.80
2019-03-21T07:26:06.680Z,41.70
2019-03-21T07:28:32.811Z,42.90
2019-03-21T07:31:00.435Z,41.10
2019-03-21T07:33:26.601Z,38.70
2019-03-21T07:35:52.768Z,36.00
2019-03-21T07:38:18.983Z,36.00
2019-03-21T07:40:45.149Z,34.70
2019-03-21T07:43:12.440Z,35.80
2019-03-21T07:45:38.640Z,33.50
2019-03-21T07:48:05.406Z,34.00
2019-03-21T07:50:31.708Z,35.00
2019-03-21T07:52:57.968Z,34.40
2019-03-21T07:55:24.132Z,35.50
2019-03-21T07:57:50.327Z,34.00
2019-03-21T08:00:17.516Z,33.10
2019-03-21T08:02:43.960Z,32.30
2019-03-21T08:05:12.098Z,29.70
2019-03-21T08:07:38.273Z,29.00
2019-03-21T08:10:07.398Z,29.90
2019-03-21T08:12:33.570Z,32.00
2019-03-21T08:14:59.752Z,31.80
2019-03-21T08:17:25.961Z,30.70
2019-03-21T08:19:52.136Z,32.10
2019-03-21T08:22:18.345Z,32.80
2019-03-21T08:24:46.607Z,32.00
2019-03-21T08:27:12.827Z,31.00
2019-03-21T08:29:39.041Z,31.60
2019-03-21T08:32:05.232Z,30.80
2019-03-21T08:34:31.398Z,32.30
2019-03-21T08:36:57.698Z,32.40
2019-03-21T08:39:23.880Z,31.70
2019-03-21T08:41:50.257Z,33.10
2019-03-21T08:44:16.427Z,31.80
2019-03-21T08:46:42.612Z,30.50
2019-03-21T08:49:08.803Z,32.00
2019-03-21T08:51:35.011Z,31.70
2019-03-21T08:54:01.229Z,30.20
2019-03-21T08:56:27.407Z,29.60
2019-03-21T08:58:53.794Z,31.20
2019-03-21T09:01:19.989Z,30.40
2019-03-21T09:03:46.424Z,30.80
2019-03-21T09:06:12.600Z,29.60
2019-03-21T09:08:38.920Z,29.10
2019-03-21T09:11:05.088Z,30.10
2019-03-21T09:13:31.260Z,29.50
2019-03-21T09:15:57.489Z,28.30
2019-03-21T09:18:23.708Z,28.70
2019-03-21T09:20:49.867Z,28.00
2019-03-21T09:23:16.055Z,27.30
2019-03-21T09:25:42.266Z,27.70
2019-03-21T09:28:08.423Z,27.50
2019-03-21T09:30:34.634Z,28.50
2019-03-21T09:33:00.813Z,28.20
2019-03-21T09:35:27.277Z,29.40
2019-03-21T09:37:53.585Z,28.80
2019-03-21T09:40:19.784Z,27.60
2019-03-21T09:42:45.952Z,26.90
2019-03-21T09:45:12.353Z,28.20
2019-03-21T09:47:38.521Z,29.50
2019-03-21T09:50:06.925Z,29.30
2019-03-21T09:52:33.117Z,28.10
2019-03-21T09:54:59.359Z,28.40
2019-03-21T09:57:25.566Z,27.90
2019-03-21T09:59:51.744Z,26.40
2019-03-21T10:02:17.949Z,26.00
2019-03-21T10:04:44.141Z,26.70
2019-03-21T10:07:10.312Z,25.60
2019-03-21T10:09:36.526Z,26.90
2019-03-21T10:12:03.169Z,26.50
2019-03-21T10:14:29.463Z,26.60
2019-03-21T10:16:55.762Z,25.60
2019-03-21T10:19:21.917Z,25.70
2019-03-21T10:21:48.115Z,25.40
2019-03-21T10:24:16.542Z,24.50
2019-03-21T10:26:42.814Z,24.60
2019-03-21T10:29:09.024Z,25.00
2019-03-21T10:31:35.276Z,25.70
2019-03-21T10:34:02.884Z,24.80
2019-03-21T10:36:29.070Z,24.70
2019-03-21T10:38:55.233Z,25.00
2019-03-21T10:41:21.428Z,24.20
2019-03-21T10:43:48.700Z,24.50
2019-03-21T10:46:14.878Z,23.40
2019-03-21T10:48:41.998Z,23.60
2019-03-21T10:51:08.199Z,24.00
2019-03-21T10:53:34.382Z,24.60
2019-03-21T10:56:00.565Z,23.80
2019-03-21T10:58:26.731Z,23.60
2019-03-21T11:00:52.931Z,24.50
2019-03-21T11:03:19.152Z,24.10
2019-03-21T11:05:45.440Z,23.60
2019-03-21T11:08:11.621Z,24.20
2019-03-21T11:10:37.846Z,24.80
2019-03-21T11:13:04.835Z,25.20
2019-03-21T11:15:31.212Z,24.50
2019-03-21T11:17:57.594Z,24.30
2019-03-21T11:20:37.497Z,23.90
2019-03-21T11:23:04.778Z,23.70
2019-03-21T11:25:32.393Z,25.00
2019-03-21T11:27:58.946Z,24.40
2019-03-21T11:30:30.433Z,25.20
2019-03-21T11:32:56.594Z,26.20
2019-03-21T11:35:23.157Z,25.00
2019-03-21T11:37:49.345Z,24.80
2019-03-21T11:40:15.586Z,25.80
2019-03-21T11:42:41.755Z,23.90
2019-03-21T11:45:08.159Z,23.60
2019-03-21T11:47:41.698Z,23.50
2019-03-21T11:50:04.627Z,23.80
2019-03-21T11:52:30.819Z,24.60
2019-03-21T11:54:57.004Z,25.80
2019-03-21T11:57:23.226Z,25.90
2019-03-21T11:59:51.945Z,26.00
2019-03-21T12:02:26.771Z,26.10
2019-03-21T12:04:45.572Z,26.50
2019-03-21T12:07:11.725Z,30.30
2019-03-21T12:09:37.928Z,32.60
2019-03-21T12:12:04.124Z,34.60
2019-03-21T12:14:30.319Z,34.20
2019-03-21T12:16:56.699Z,34.50
2019-03-21T12:19:23.912Z,35.60
2019-03-21T12:21:50.090Z,36.70
2019-03-21T12:24:18.690Z,39.00
2019-03-21T12:26:44.878Z,37.20
2019-03-21T12:29:11.127Z,38.30
2019-03-21T12:31:37.631Z,38.60
2019-03-21T12:34:03.808Z,37.10
2019-03-21T12:36:43.581Z,37.00
2019-03-21T12:39:10.883Z,35.50
2019-03-21T12:41:37.060Z,38.30
2019-03-21T12:44:09.257Z,37.70
2019-03-21T12:46:37.564Z,37.10
2019-03-21T12:49:06.313Z,37.30
2019-03-21T12:51:32.663Z,38.30
2019-03-21T12:53:58.929Z,38.60
2019-03-21T12:56:31.404Z,38.00
2019-03-21T12:59:02.690Z,37.40
2019-03-21T13:01:32.162Z,37.30
2019-03-21T13:04:09.681Z,38.00
2019-03-21T13:06:36.209Z,39.20
2019-03-21T13:09:05.763Z,37.80
2019-03-21T13:11:34.028Z,37.90
2019-03-21T13:14:02.452Z,37.90
2019-03-21T13:16:28.656Z,37.60
2019-03-21T13:18:54.874Z,36.30
2019-03-21T13:21:21.100Z,35.80
2019-03-21T13:23:47.301Z,35.80
2019-03-21T13:26:13.464Z,34.60
2019-03-21T13:28:39.709Z,35.90
2019-03-21T13:31:06.188Z,36.10
2019-03-21T13:33:32.381Z,36.50
2019-03-21T13:35:58.886Z,36.70
2019-03-21T13:38:25.080Z,36.40
2019-03-21T13:40:51.277Z,36.60
2019-03-21T13:43:17.448Z,38.40
2019-03-21T13:45:43.641Z,38.90
2019-03-21T13:48:09.985Z,36.00
2019-03-21T13:50:36.377Z,36.90
2019-03-21T13:53:05.252Z,37.00
2019-03-21T13:55:31.106Z,35.70
2019-03-21T13:57:57.273Z,36.50
2019-03-21T14:00:24.456Z,36.10
2019-03-21T14:02:50.616Z,37.40
2019-03-21T14:05:38.600Z,39.20
2019-03-21T14:08:04.775Z,39.60
2019-03-21T14:10:32.325Z,38.90
2019-03-21T14:12:58.605Z,38.00
2019-03-21T14:15:24.798Z,37.80
2019-03-21T14:17:50.958Z,38.50
2019-03-21T14:20:17.129Z,39.00
2019-03-21T14:22:43.343Z,38.70
2019-03-21T14:25:10.457Z,38.30
2019-03-21T14:27:36.633Z,37.60
2019-03-21T14:30:05.016Z,38.10
2019-03-21T14:32:31.537Z,39.00
2019-03-21T14:34:57.716Z,40.20
2019-03-21T14:37:23.904Z,40.90
2019-03-21T14:39:50.065Z,40.10
2019-03-21T14:42:16.247Z,39.10
2019-03-21T14:44:42.410Z,39.10
2019-03-21T14:47:08.952Z,41.20
2019-03-21T14:49:35.595Z,40.60
2019-03-21T14:52:01.772Z,40.70
2019-03-21T14:54:27.942Z,40.00
2019-03-21T14:56:54.162Z,41.80
2019-03-21T14:59:20.352Z,41.50
2019-03-21T15:01:46.521Z,39.40
2019-03-21T15:04:12.680Z,38.80
2019-03-21T15:06:38.876Z,37.90
2019-03-21T15:09:06.036Z,37.90
2019-03-21T15:11:32.708Z,38.60
2019-03-21T15:13:58.969Z,37.00
2019-03-21T15:16:25.143Z,37.50
2019-03-21T15:18:51.336Z,39.00
2019-03-21T15:21:17.506Z,40.30
2019-03-21T15:23:43.890Z,40.00
2019-03-21T15:26:10.062Z,39.30
2019-03-21T15:28:36.263Z,38.50
2019-03-21T15:31:02.565Z,38.40
2019-03-21T15:33:28.760Z,40.10
2019-03-21T15:35:54.958Z,38.80
2019-03-21T15:38:21.148Z,40.30
2019-03-21T15:40:47.444Z,39.60
2019-03-21T15:43:15.541Z,40.60
2019-03-21T15:45:41.725Z,41.00
2019-03-21T15:48:08.460Z,39.80
2019-03-21T15:50:37.671Z,39.20
2019-03-21T15:53:04.737Z,39.20
2019-03-21T15:55:30.924Z,39.50
2019-03-21T15:57:57.172Z,40.20
2019-03-21T16:00:36.334Z,40.10
2019-03-21T16:03:04.731Z,40.10
2019-03-21T16:05:33.069Z,40.40
2019-03-21T16:07:59.529Z,39.60
2019-03-21T16:10:25.712Z,39.30
2019-03-21T16:12:51.896Z,40.70
2019-03-21T16:15:18.168Z,40.50
2019-03-21T16:17:45.972Z,39.50
2019-03-21T16:20:12.200Z,39.40
2019-03-21T16:22:38.644Z,38.70
2019-03-21T16:25:06.538Z,38.60
2019-03-21T16:27:32.920Z,39.30
2019-03-21T16:29:59.120Z,38.70
2019-03-21T16:32:25.289Z,38.60
2019-03-21T16:34:51.466Z,38.40
2019-03-21T16:37:17.669Z,38.50
2019-03-21T16:39:43.869Z,38.00
2019-03-21T16:42:10.126Z,38.10
2019-03-21T16:44:36.341Z,37.80
2019-03-21T16:47:02.643Z,37.90
2019-03-21T16:49:29.868Z,37.60
2019-03-21T16:51:57.993Z,38.20
2019-03-21T16:54:24.151Z,37.80
2019-03-21T16:56:50.353Z,38.20
2019-03-21T16:59:16.512Z,38.40
2019-03-21T17:01:42.973Z,38.80
2019-03-21T17:04:09.259Z,40.10
2019-03-21T17:06:35.437Z,39.10
2019-03-21T17:09:01.630Z,39.70
2019-03-21T17:11:28.502Z,39.80
2019-03-21T17:13:54.711Z,39.40
2019-03-21T17:16:21.026Z,39.50
2019-03-21T17:18:48.338Z,40.00
2019-03-21T17:21:14.599Z,40.10
2019-03-21T17:23:43.825Z,40.40
2019-03-21T17:26:15.740Z,40.60
2019-03-21T17:28:40.927Z,40.60
2019-03-21T17:31:07.189Z,40.90
2019-03-21T17:33:33.761Z,40.90
2019-03-21T17:35:59.956Z,41.20
2019-03-21T17:38:26.173Z,41.60
2019-03-21T17:40:52.338Z,41.90
2019-03-21T17:43:18.506Z,41.90
2019-03-21T17:45:44.700Z,41.90
2019-03-21T17:48:10.870Z,42.20
2019-03-21T17:50:39.856Z,42.50
2019-03-21T17:53:06.041Z,42.50
2019-03-21T17:55:32.514Z,42.80
2019-03-21T17:57:58.864Z,43.30
2019-03-21T18:00:29.717Z,43.80
2019-03-21T18:02:56.339Z,44.00
2019-03-21T18:05:22.595Z,44.20
2019-03-21T18:07:48.791Z,44.20
2019-03-21T18:10:29.685Z,44.10
2019-03-21T18:12:56.117Z,44.40
2019-03-21T18:15:22.399Z,44.70
2019-03-21T18:17:49.684Z,44.80
2019-03-21T18:20:15.925Z,44.90
2019-03-21T18:22:42.152Z,45.30
2019-03-21T18:25:08.433Z,45.50
2019-03-21T18:27:34.596Z,45.50
2019-03-21T18:30:04.897Z,45.50
2019-03-21T18:32:31.302Z,45.70
2019-03-21T18:34:57.488Z,45.80
2019-03-21T18:37:23.654Z,45.90
2019-03-21T18:39:49.846Z,46.40
2019-03-21T18:42:16.056Z,46.40
2019-03-21T18:44:42.242Z,46.70
2019-03-21T18:47:08.457Z,47.20
2019-03-21T18:49:34.633Z,47.20
2019-03-21T18:52:00.893Z,47.50
2019-03-21T18:54:27.093Z,47.20
2019-03-21T18:56:53.280Z,47.70
2019-03-21T18:59:19.468Z,48.10
2019-03-21T19:01:57.665Z,47.70
2019-03-21T19:04:14.088Z,47.50
2019-03-21T19:06:40.279Z,47.60
2019-03-21T19:09:06.476Z,47.80
2019-03-21T19:11:32.912Z,48.00
2019-03-21T19:13:59.196Z,48.10
2019-03-21T19:16:25.372Z,48.20
2019-03-21T19:18:51.543Z,48.60
2019-03-21T19:21:17.827Z,48.70
2019-03-21T19:23:44.086Z,49.60
2019-03-21T19:26:10.264Z,49.20
2019-03-21T19:28:36.466Z,49.70
2019-03-21T19:31:03.066Z,49.70
2019-03-21T19:33:32.089Z,50.10
2019-03-21T19:35:58.413Z,50.40
2019-03-21T19:38:24.629Z,51.10
2019-03-21T19:40:50.948Z,51.40
2019-03-21T19:43:17.456Z,51.80
2019-03-21T19:45:43.741Z,52.20
2019-03-21T19:48:10.104Z,52.90
2019-03-21T19:50:36.408Z,53.70
2019-03-21T19:53:02.805Z,54.00
2019-03-21T19:55:32.195Z,54.90
2019-03-21T19:57:58.609Z,55.00
2019-03-21T20:00:24.782Z,54.70
2019-03-21T20:02:51.164Z,54.60
2019-03-21T20:05:17.745Z,54.90
2019-03-21T20:07:44.109Z,55.70
2019-03-21T20:10:12.752Z,56.20
2019-03-21T20:12:38.979Z,57.40
2019-03-21T20:15:07.691Z,58.70
2019-03-21T20:17:34.301Z,58.50
2019-03-21T20:20:00.548Z,58.90
2019-03-21T20:22:26.731Z,60.30
2019-03-21T20:24:52.914Z,62.40
2019-03-21T20:27:19.199Z,63.20
2019-03-21T20:29:45.489Z,63.70
2019-03-21T20:32:20.196Z,63.90
2019-03-21T20:34:39.937Z,64.10
2019-03-21T20:37:06.104Z,65.70
2019-03-21T20:39:32.350Z,66.70
2019-03-21T20:41:58.514Z,67.10
2019-03-21T20:44:24.701Z,67.40
2019-03-21T20:46:50.883Z,67.10
2019-03-21T20:49:17.066Z,66.80
2019-03-21T20:51:43.238Z,66.80
2019-03-21T20:54:09.417Z,67.00
2019-03-21T20:56:35.592Z,68.60
2019-03-21T20:59:01.769Z,68.60
2019-03-21T21:01:28.044Z,68.40
2019-03-21T21:03:54.261Z,68.20
2019-03-21T21:06:20.420Z,69.60
2019-03-21T21:08:46.686Z,70.80
2019-03-21T21:11:12.883Z,71.00
2019-03-21T21:13:39.144Z,71.70
2019-03-21T21:16:05.320Z,71.90
2019-03-21T21:18:31.540Z,72.40
2019-03-21T21:20:58.721Z,74.30
2019-03-21T21:23:24.880Z,74.50
2019-03-21T21:25:51.088Z,75.00
2019-03-21T21:28:17.264Z,74.70
2019-03-21T21:30:43.472Z,74.70
2019-03-21T21:33:09.732Z,75.40
2019-03-21T21:35:36.000Z,76.50
2019-03-21T21:38:02.260Z,75.80
2019-03-21T21:40:32.651Z,74.90
2019-03-21T21:42:59.100Z,75.30
2019-03-21T21:45:25.260Z,76.50
2019-03-21T21:47:51.459Z,76.20
2019-03-21T21:50:17.785Z,76.80
2019-03-21T21:52:44.062Z,78.80
2019-03-21T21:55:10.665Z,77.60
2019-03-21T21:57:37.842Z,78.70
2019-03-21T22:00:06.928Z,78.40
2019-03-21T22:02:33.204Z,77.70
2019-03-21T22:05:00.511Z,78.80
2019-03-21T22:07:27.073Z,78.30
2019-03-21T22:09:53.261Z,78.40
2019-03-21T22:12:20.448Z,78.70
2019-03-21T22:14:46.946Z,79.30
2019-03-21T22:17:13.103Z,80.10
2019-03-21T22:19:39.303Z,79.40
2019-03-21T22:22:05.484Z,80.60
2019-03-21T22:24:32.597Z,82.20
2019-03-21T22:26:58.784Z,83.40
2019-03-21T22:29:24.968Z,83.90
2019-03-21T22:31:51.164Z,83.50
2019-03-21T22:34:19.038Z,82.80
2019-03-21T22:36:49.631Z,81.60
2019-03-21T22:39:13.532Z,81.90
2019-03-21T22:41:39.725Z,82.10
2019-03-21T22:44:05.982Z,82.70
2019-03-21T22:46:32.166Z,83.20
2019-03-21T22:48:58.333Z,82.90
2019-03-21T22:51:24.506Z,83.50
2019-03-21T22:53:50.664Z,83.30
2019-03-21T22:56:16.847Z,83.20
2019-03-21T22:58:43.012Z,83.70
2019-03-21T23:01:09.429Z,84.10
2019-03-21T23:03:36.688Z,84.50
2019-03-21T23:06:02.872Z,84.30
2019-03-21T23:08:29.540Z,84.80
2019-03-21T23:10:56.933Z,85.00
2019-03-21T23:13:23.102Z,85.10
2019-03-21T23:15:49.280Z,85.40
2019-03-21T23:18:15.474Z,85.40
2019-03-21T23:20:41.624Z,85.60
2019-03-21T23:23:09.557Z,85.70
2019-03-21T23:25:35.985Z,85.50
2019-03-21T23:28:02.335Z,85.10
2019-03-21T23:30:28.544Z,85.30
2019-03-21T23:32:54.828Z,85.50
2019-03-21T23:35:20.986Z,85.50
2019-03-21T23:37:47.172Z,85.00
2019-03-21T23:40:14.457Z,85.10
2019-03-21T23:42:40.645Z,84.90
2019-03-21T23:45:08.507Z,85.70
2019-03-21T23:47:34.688Z,86.00
2019-03-21T23:50:00.989Z,86.10
2019-03-21T23:52:27.193Z,86.00
2019-03-21T23:54:53.354Z,86.30
2019-03-21T23:57:19.537Z,86.40
2019-03-21T23:59:45.697Z,86.50
